Tiempo atmosférico en la estación meteorológica de Cazalla De La Sierra, Sevilla (550 m.)



Fecha
DESCASC
Temp. máxima en grados centígrados (hora)
DESCASC
Temp. mínima en grados centígrados (hora)
DESCASC
Temp. media en grados centígrados
DESCASC
Racha de viento máxima en m/sg (hora)
DESCASC
Velocidad máxima media en intervalos de 10 minutos(hora)
DESCASC
Precipitaciones diarias en mm
DESCASC
Precipitaciones de 00:00 a 06:00 en mm
DESCASC
Precipitaciones de 06:00 a 12:00 en mm
DESCASC
Precipitaciones de 12:00 a 18:00 en mm
DESCASC
Precipitaciones de 18:00 a 24:00 en mm
DESCASC
14-12-2019 13.3 (13:10) 9.7 (08:20) 11.5 7.22 (08:50) 3.89 (08:50) 0 0 0 0 0
13-12-2019 13.8 (16:00) 9.6 (00:10) 11.7 11.67 (05:20) 6.67 (07:30) 0.5 0.5 0 0 0
12-12-2019 12.6 (14:20) 1 (03:20) 6.8 11.67 (19:10) 6.11 (13:50) 0.5 0 0 0 0.5
11-12-2019 14.2 (14:20) 3 (00:00) 8.6 9.44 (14:20) 5 (14:20) 0 0 0 0 0
10-12-2019 19.7 (15:40) 3 (08:40) 11.4 6.11 (03:20) 3.33 (03:30) 0.1 0 0.1 0 0
09-12-2019 17.2 (16:00) 6.3 (23:50) 11.8 4.17 (00:30) 3.33 (16:40) 0.1 0.1 0 0 0
08-12-2019 17.8 (14:40) 2.9 (00:00) 10.3 5.28 (16:30) 3.33 (15:30) 0.2 0 0.1 0 0.1
07-12-2019 18.9 (14:50) 3.2 (00:00) 11 4.72 (16:20) 2.78 (16:30) 0 0 0 0 0
06-12-2019 17.2 (15:50) 6.3 (00:00) 11.8 6.67 (10:30) 4.17 (10:30) 0 0 0 0 0
05-12-2019 13.9 (15:20) 4.8 (00:00) 9.3 8.33 (17:00) 4.72 (17:00) 0 0 0 0 0
04-12-2019 14.6 (15:20) 4.7 (23:20) 9.7 8.06 (14:40) 3.89 (13:10) 0 0 0 0 0
03-12-2019 14.8 (14:30) 6.5 (00:00) 10.7 8.06 (08:40) 4.17 (11:20) 0 0 0 0 0
02-12-2019 13.5 (13:40) 7.1 (00:00) 10.3 8.33 (12:50) 5 (12:40) 4.1 3.6 0.5 0 0
01-12-2019 12.7 (15:20) 4.7 (00:00) 8.7 6.39 (13:20) 2.22 (12:30) 3 0.1 0 0.6 2.3
30-11-2019 15.7 (16:30) 5.9 (00:00) 10.8 6.11 (13:30) 3.89 (23:30) 0.9 0 0.1 0 0.8
29-11-2019 18.4 (14:50) 5.8 (00:00) 12.1 5 (11:30) 2.5 (11:30) 0.1 0 0.1 0 0
28-11-2019 15.8 (16:00) 5.8 (00:20) 10.8 4.17 (15:30) 2.22 (10:20) 0 0 0 0 0
27-11-2019 16.3 (15:40) 6 (00:00) 11.1 8.33 (15:50) 4.72 (15:40) 0 0 0 0 0
26-11-2019 13.9 (16:20) 7.3 (00:00) 10.6 8.33 (19:40) 3.33 (21:10) 4.2 0 0.2 0.8 3.2
25-11-2019 14.8 (17:20) 8 (00:10) 11.4 6.67 (12:30) 4.17 (14:10) 1.1 0 1.1 0 0
24-11-2019 14.9 (14:00) 1.7 (00:00) 8.3 7.78 (00:40) 4.17 (00:50) 0 0 0 0 0
23-11-2019 13.6 (15:00) 5.1 (00:00) 9.4 14.72 (04:00) 8.33 (03:10) 0 0 0 0 0
22-11-2019 14.7 (16:20) 10 (00:00) 12.3 15 (13:30) 9.17 (17:00) 35.9 0.1 6.2 29.6 0
21-11-2019 12.4 (16:30) 7.9 (00:00) 10.1 4.72 (23:50) 2.22 (23:59) 8 0.2 6.2 1.5 0.1
20-11-2019 8.4 (18:30) 1.6 (01:20) 5 5 (14:50) 1.94 (14:00) 2.6 0 1 1.2 0.4
19-11-2019 14.1 (14:20) 1.4 (00:00) 7.8 4.17 (14:10) 1.94 (13:30) 0 0 0 0 0
18-11-2019 14.3 (15:50) 2.2 (00:00) 8.3 9.72 (04:10) 4.17 (00:30) 1.3 1.3 0 0 0
17-11-2019 11.3 (21:20) -0.1 (00:00) 5.6 7.5 (23:59) 4.44 (23:59) 7.4 0 2.1 0.7 4.6
16-11-2019 13.4 (14:10) -0.8 (-00:0) 6.3 6.39 (15:40) 4.17 (16:00) 0 0 0 0 0
15-11-2019 10.1 (17:20) 3.5 (00:00) 6.8 9.72 (00:30) 5 (02:30) 0 0 0 0 0

Gráficas

Temp. máximas Temp. mínimas Temp. medias Precipitaciones Rachas de viento máximas Velocidades máximas media en intervalos de 10 minutos

Datos horarios

Fecha y hora oficial Temperatura (ºC) Velocidad del viento (km/h) Dirección del viento Racha (km/h) Dirección de racha Precipitación (mm) Presión (hPa) Tendencia (hPa) Humedad (%)
2019-12-14 23:00:00 10 0 Calma 5 Este 0 955.7 -0.4 85
2019-12-14 22:00:00 10.2 0 Calma 5 Este 0 955.7 -0.4 83
2019-12-14 21:00:00 10.4 0 Calma 6 Este 0 956 -0.1 82
2019-12-14 20:00:00 10.7 0 Calma 2 Nordeste 0 956.1 0.1 82
2019-12-14 19:00:00 11.8 0 Calma 7 Oeste 0 956.1 0.2 76
2019-12-14 18:00:00 12.2 3 Oeste 9 Oeste 0 956.1 0 71
2019-12-14 17:00:00 12.5 4 Oeste 14 Oeste 0 956 -0.8 66
2019-12-14 16:00:00 12.5 8 Noroeste 17 Noroeste 0 955.9 -1.1 69
2019-12-14 15:00:00 12.4 8 Noroeste 22 Oeste 0 956.1 -1.7 69
2019-12-14 14:00:00 12.4 9 Noroeste 22 Oeste 0 956.8 -1.2 68
2019-12-14 13:00:00 12.8 8 Noroeste 18 Noroeste 0 957 -0.8 66
2019-12-14 12:00:00 12.3 6 Norte 17 Norte 0 957.8 0.3 69
2019-12-14 11:00:00 11 7 Noroeste 19 Noroeste 0 958 0.8 72
2019-12-14 10:00:00 10.2 6 Noroeste 20 Noroeste 0 957.8 0.8 75
2019-12-14 09:00:00 9.9 9 Noroeste 26 Noroeste 0 957.5 0.8 78
2019-12-14 08:00:00 9.8 10 Noroeste 17 Noroeste 0 957.2 0 85
2019-12-14 07:00:00 10.2 6 Noroeste 22 Noroeste 0 957 -0.4 78
2019-12-14 06:00:00 10.3 8 Noroeste 17 Noroeste 0 956.7 -0.9 79
2019-12-14 05:00:00 10.3 5 Noroeste 16 Noroeste 0 957.2 -0.7 85
2019-12-14 04:00:00 10.6 7 Noroeste 14 Oeste 0 957.4 -0.5 86
2019-12-14 03:00:00 10.7 5 Oeste 19 Oeste 0 957.6 -0.4 85
2019-12-14 02:00:00 10.9 7 Oeste 14 Oeste 0 957.9 0.1 88
2019-12-14 01:00:00 11.7 6 Noroeste 20 Noroeste 0 957.9 0.1 86
2019-12-14 00:00:00 11.8 7 Oeste 14 Noroeste 0 958 -0.1 88
2019-12-13 23:00:00 12.1 8 Oeste 18 Noroeste 0 957.8 -0.2 89
2019-12-13 22:00:00 11.9 5 Oeste 12 Oeste 0 957.8 -0.2 87
2019-12-13 21:00:00 12.2 6 Oeste 12 Oeste 0 958.1 0.2 83
2019-12-13 20:00:00 12.3 5 Oeste 22 Oeste 0 958 0.4 82
2019-12-13 19:00:00 12.7 11 Oeste 20 Noroeste 0 958 0.3 79
2019-12-13 18:00:00 13 10 Noroeste 25 Noroeste 0 957.9 0.3 79
2019-12-13 17:00:00 13.3 13 Oeste 28 Oeste 0 957.6 -0.6 78
2019-12-13 16:00:00 13.8 15 Oeste 35 Oeste 0 957.7 -1 75
2019-12-13 15:00:00 13.2 17 Noroeste 31 Noroeste 0 957.6 -1.3 80
2019-12-13 14:00:00 13.2 18 Oeste 30 Oeste 0 958.2 -0.6 82
2019-12-13 13:00:00 12.9 15 Oeste 32 Oeste 0 958.7 0.7 82
2019-12-13 12:00:00 12.6 17 Noroeste 38 Noroeste 0 958.9 1.3 83
2019-12-13 11:00:00 12.3 18 Noroeste 39 Noroeste 0 958.8 1.2 85
2019-12-13 10:00:00 12.1 18 Noroeste 34 Noroeste 0 958 1 85
2019-12-13 09:00:00 11.1 19 Noroeste 35 Oeste 0 957.6 1 88
2019-12-13 08:00:00 11.3 17 Noroeste 41 Oeste 0 957.6 0.9 85
2019-12-13 07:00:00 10.8 19 Oeste 33 Noroeste 0 957 0.1 90
2019-12-13 06:00:00 11.3 19 Oeste 42 Oeste 0 956.6 -0.2 95
2019-12-13 05:00:00 11.8 17 Oeste 30 Noroeste 0 956.7 0.1 96
2019-12-13 04:00:00 10.8 6 Oeste 20 Oeste 0 956.9 -0.5 99
2019-12-13 03:00:00 10.7 14 Oeste 27 Oeste 0.1 956.8 -0.5 99
2019-12-13 02:00:00 10 10 Oeste 21 Sudoeste 0.1 956.6 -0.6 99
2019-12-13 01:00:00 10.1 10 Oeste 20 Oeste 0.3 957.4 -0.2 99
2019-12-13 00:00:00 9.7 12 Oeste 23 Oeste 0.4 957.3 -0.2 98
2019-12-12 23:00:00 9.3 12 Oeste 22 Oeste 0.1 957.2 -0.6 97
2019-12-12 22:00:00 9.7 14 Oeste 26 Oeste 0 957.6 -0.5 93
2019-12-12 21:00:00 10.2 19 Oeste 30 Oeste 0 957.5 -0.7 86
2019-12-12 20:00:00 10.3 15 Oeste 42 Oeste 0 957.8 -0.4 81
2019-12-12 19:00:00 10.6 18 Oeste 32 Oeste 0 958.1 -0.8 78
2019-12-12 18:00:00 10.9 15 Oeste 26 Oeste 0 958.2 -1.1 76
2019-12-12 17:00:00 10.6 14 Oeste 30 Oeste 0 958.2 -1.6 74
2019-12-12 16:00:00 11.7 14 Oeste 33 Noroeste 0 958.9 -1.3 69
2019-12-12 15:00:00 12.2 22 Oeste 42 Oeste 0 959.3 -1.9 66
2019-12-12 14:00:00 12.2 21 Oeste 35 Oeste 0 959.8 -2.1 64
2019-12-12 13:00:00 12.4 16 Oeste 33 Oeste 0 960.2 -0.4 67
2019-12-12 12:00:00 11.4 14 Oeste 32 Noroeste 0 961.2 0.3 73
2019-12-12 11:00:00 9.1 19 Noroeste 38 Noroeste 0 961.9 0.9 83
2019-12-12 10:00:00 8.3 18 Noroeste 33 Noroeste 0 960.6 -0.4 84
2019-12-12 09:00:00 6 6 Noroeste 19 Norte 0 960.9 0 92
2019-12-12 08:00:00 5.8 10 Norte 23 Noroeste 0 961 -0.5 90
2019-12-12 07:00:00 3.2 6 Oeste 13 Oeste 0 961 -1.1 94
2019-12-12 06:00:00 2.2 3 Oeste 7 Oeste 0 960.9 -0.9 90
2019-12-12 05:00:00 2.2 3 Noroeste 7 Oeste 0 961.5 -0.5 91
2019-12-12 04:00:00 1.2 3 Oeste 7 Oeste 0 962.1 0.2 92
2019-12-12 03:00:00 1.2 0 Calma 8 Oeste 0 961.8 -0.2 88
2019-12-12 02:00:00 1.8 2 Sudeste 5 Este 0 962 -0.1 86
2019-12-12 01:00:00 4.5 0 Calma 15 Noroeste 0 961.9 -0.4 74
2019-12-12 00:00:00 6.4 2 Norte 15 Norte 0 962 -0.4 66
2019-12-11 23:00:00 7.1 2 Noroeste 17 Noroeste 0 962.1 0.4 65
2019-12-11 22:00:00 7.4 3 Este 17 Norte 0 962.3 0.8 66
2019-12-11 21:00:00 7.4 4 Norte 19 Noroeste 0 962.4 1.6 67
2019-12-11 20:00:00 7.4 2 Noroeste 9 Norte 0 961.7 1 77
2019-12-11 19:00:00 8.7 4 Norte 18 Noroeste 0 961.5 1.1 81
2019-12-11 18:00:00 9.7 5 Noroeste 28 Norte 0 960.8 1.3 74
2019-12-11 17:00:00 11.7 15 Noroeste 31 Noroeste 0 960.7 0.8 68
2019-12-11 16:00:00 11.7 16 Noroeste 31 Noroeste 0 960.4 0.2 78
2019-12-11 15:00:00 12.8 9 Norte 34 Noroeste 0 959.5 -1.6 77
2019-12-11 14:00:00 13.7 17 Noroeste 29 Noroeste 0 959.9 -1.3 75
2019-12-11 13:00:00 13.2 14 Oeste 30 Noroeste 0 960.2 -0.7 76
2019-12-11 12:00:00 12.7 15 Noroeste 27 Noroeste 0 961.1 0.6 56
2019-12-11 11:00:00 10.4 6 Oeste 12 Oeste 0 961.2 1 58
2019-12-11 10:00:00 7.8 2 Oeste 4 Oeste 0 960.9 1.2 76
2019-12-11 09:00:00 6 3 Sudeste 5 Este 0 960.5 0.9 84
2019-12-11 08:00:00 4.8 4 Este 7 Sudeste 0 960.2 0.4 82
2019-12-11 07:00:00 4.2 4 Este 7 Este 0 959.7 -0.5 85
2019-12-11 06:00:00 3.6 4 Este 7 Este 0 959.6 -0.8 86
2019-12-11 05:00:00 3.7 3 Sudeste 8 Sudeste 0 959.8 -0.6 87
2019-12-11 04:00:00 3.3 4 Este 7 Este 0 960.2 -0.8 90
2019-12-11 03:00:00 3.8 6 Este 9 Este 0 960.4 -0.9 91
2019-12-11 02:00:00 4.2 5 Sudeste 8 Este 0 960.4 -0.9 93
2019-12-11 01:00:00 4.4 4 Sudeste 8 Este 0 961 -0.3 92
2019-12-11 00:00:00 5.1 4 Sudeste 7 Este 0 961.3 0.1 92
2019-12-10 23:00:00 5.9 5 Sudeste 8 Este 0 961.3 0.1 90
2019-12-10 22:00:00 6 3 Sudeste 6 Sudeste 0 961.3 0.2 89
2019-12-10 21:00:00 6.7 4 Sudeste 6 Este 0 961.2 0 86
2019-12-10 20:00:00 7.3 4 Este 6 Este 0 961.2 0.1 80
2019-12-10 19:00:00 9.2 4 Sudeste 6 Sudeste 0 961.1 -0.1 73
2019-12-10 18:00:00 12.5 0 Calma 9 Norte 0 961.2 -0.1 56
2019-12-10 17:00:00 17.3 3 Norte 12 Oeste 0 961.1 -1 34
2019-12-10 16:00:00 19.1 7 Oeste 12 Oeste 0 961.2 -1.6 30
2019-12-10 15:00:00 18.9 5 Oeste 12 Oeste 0 961.3 -1.9 27
2019-12-10 14:00:00 17.6 7 Oeste 11 Oeste 0 962.1 -1.6 35
2019-12-10 13:00:00 15.2 6 Oeste 12 Oeste 0 962.8 -0.6 59
2019-12-10 12:00:00 13.9 5 Este 10 Este 0 963.2 -0.2 49
2019-12-10 11:00:00 7.5 3 Oeste 8 Oeste 0 963.7 0.5 97
2019-12-10 10:00:00 5.9 0 Calma 10 Este 0 963.4 0.3 99
2019-12-10 09:00:00 3.8 0 Calma 9 Este 0.1 963.4 0 99
2019-12-10 08:00:00 3.9 0 Calma 5 Este 0 963.2 -0.2 98
2019-12-10 07:00:00 6.1 4 Este 15 Este 0 963.1 -0.6 99
2019-12-10 06:00:00 6.7 7 Este 17 Este 0 963.4 -0.6 99
2019-12-10 05:00:00 7.2 8 Este 18 Este 0 963.4 -0.5 99
2019-12-10 04:00:00 7.5 9 Este 22 Este 0 963.7 -0.6 99
2019-12-10 03:00:00 6.3 8 Sudeste 13 Sudeste 0 964 -0.3 99
2019-12-10 02:00:00 6 6 Este 8 Este 0 963.9 -0.7 97
2019-12-10 01:00:00 6.1 4 Este 8 Este 0 964.3 0 97
2019-12-10 00:00:00 6.3 3 Este 7 Este 0 964.3 0.1 95
2019-12-09 23:00:00 7.4 3 Sudeste 8 Este 0 964.6 0.5 94
2019-12-09 22:00:00 8.3 4 Este 7 Este 0 964.3 0.8 93
2019-12-09 21:00:00 9.5 3 Sudeste 6 Nordeste 0 964.2 0.3 91
2019-12-09 20:00:00 10.2 4 Sudeste 9 Este 0 964.1 0.5 87
2019-12-09 19:00:00 12.2 4 Sudeste 11 Norte 0 963.5 0 81
2019-12-09 18:00:00 13.5 5 Noroeste 10 Oeste 0 963.9 0.3 70
2019-12-09 17:00:00 14.9 9 Oeste 15 Oeste 0 963.6 -0.6 62
2019-12-09 16:00:00 17.2 3 Noroeste 9 Sudeste 0 963.5 -1.2 62
2019-12-09 15:00:00 15.6 5 Este 13 Este 0 963.6 -1.7 67
2019-12-09 14:00:00 14.6 6 Este 12 Nordeste 0 964.2 -1.2 73
2019-12-09 13:00:00 13.4 4 Nordeste 13 Norte 0 964.7 0 78
2019-12-09 12:00:00 12.8 4 Norte 11 Noroeste 0 965.3 1.3 81
2019-12-09 11:00:00 12.2 4 Noroeste 10 Noroeste 0 965.4 1.8 92
2019-12-09 10:00:00 10.2 4 Noroeste 9 Este 0 964.7 1.5 98
2019-12-09 09:00:00 9 3 Nordeste 6 Nordeste 0 964 1.4 95
2019-12-09 08:00:00 11.6 0 Calma 7 Noroeste 0 963.6 1 92
2019-12-09 07:00:00 12.2 0 Calma 8 Sur 0 963.2 0.6 96
2019-12-09 06:00:00 12.2 0 Calma -- -- 0 962.6 0.2 97
2019-12-09 05:00:00 12.2 0 Calma 4 Noroeste 0.1 962.6 0 97
2019-12-09 04:00:00 12.2 3 Noroeste 6 Noroeste 0 962.6 -0.2 98
2019-12-09 03:00:00 12.2 0 Calma 6 Oeste 0 962.4 -0.4 97
2019-12-09 02:00:00 12 3 Oeste 6 Oeste 0 962.6 0.2 96
2019-12-09 01:00:00 12.4 3 Oeste 15 Noroeste 0 962.8 0.3 94
2019-12-09 00:00:00 12.3 7 Noroeste 17 Norte 0 962.8 0.6 92
2019-12-08 23:00:00 12.4 5 Noroeste 10 Noroeste 0 962.4 0.7 92
2019-12-08 22:00:00 12.1 6 Noroeste 13 Noroeste 0 962.5 0.8 91
2019-12-08 21:00:00 11.7 0 Calma 4 Oeste 0.1 962.2 0.9 92
2019-12-08 20:00:00 11.2 0 Calma 7 Noroeste 0 961.7 0.7 85
2019-12-08 19:00:00 12.4 3 Noroeste 12 Noroeste 0 961.7 1.2 70
2019-12-08 18:00:00 13.6 6 Noroeste 17 Noroeste 0 961.3 0.8 57
2019-12-08 17:00:00 15.1 5 Noroeste 19 Oeste 0 961 0.3 50
2019-12-08 16:00:00 16 5 Oeste 17 Oeste 0 960.5 -1 50
2019-12-08 15:00:00 16.6 8 Noroeste 14 Noroeste 0 960.5 -1.5 46
2019-12-08 14:00:00 16.5 6 Oeste 15 Noroeste 0 960.7 -1.4 55
2019-12-08 13:00:00 16.4 4 Sudoeste 10 Noroeste 0 961.5 -0.5 47
2019-12-08 12:00:00 14.2 5 Oeste 9 Nordeste 0 962 0.6 71
2019-12-08 11:00:00 11.3 5 Este 8 Este 0 962.1 1.1 83
2019-12-08 10:00:00 7.1 3 Sudeste 6 Este 0 962 1.5 99
2019-12-08 09:00:00 3.6 4 Este 9 Este 0 961.4 1.1 99
2019-12-08 08:00:00 3.4 5 Sudeste 8 Este 0 961 0.7 98
2019-12-08 07:00:00 3.3 5 Este 8 Este 0.1 960.5 0.2 99
2019-12-08 06:00:00 3.8 4 Este 8 Este 0 960.3 -0.4 99
2019-12-08 05:00:00 4.1 5 Este 8 Este 0 960.3 -0.3 97
2019-12-08 04:00:00 4.3 5 Este 10 Este 0 960.3 -0.7 98
2019-12-08 03:00:00 4.3 5 Este 7 Este 0 960.7 -0.2 98
2019-12-08 02:00:00 4.1 5 Este 7 Este 0 960.6 -0.2 97
2019-12-08 01:00:00 4.9 4 Sudeste 6 Este 0 961 1.2 97
2019-12-08 00:00:00 5.1 5 Este 7 Este 0 960.9 0.8 96
2019-12-07 23:00:00 5.3 2 Sudeste 6 Este 0 960.8 1 95
2019-12-07 22:00:00 6.1 4 Sudeste 7 Sudeste 0 959.8 0.8 93
2019-12-07 21:00:00 6.5 4 Este 6 Este 0 960.1 1.6 90
2019-12-07 20:00:00 7.5 3 Este 6 Este 0 959.8 1.8 87
2019-12-07 19:00:00 10.2 0 Calma 9 Nordeste 0 959 1.5 76
2019-12-07 18:00:00 14.4 3 Nordeste 14 Noroeste 0 958.5 1.1 58
2019-12-07 17:00:00 17 6 Noroeste 17 Noroeste 0 958 0.1 48
2019-12-07 16:00:00 17.7 8 Oeste 15 Oeste 0 957.5 -1.1 46
2019-12-07 15:00:00 18.6 0 Calma 10 Oeste 0 957.4 -1.8 44
2019-12-07 14:00:00 18 3 Sudeste 9 Nordeste 0 957.9 -1.4 44
2019-12-07 13:00:00 17 2 Sudoeste 9 Este 0 958.6 0.2 50
2019-12-07 12:00:00 14.5 5 Este 9 Este 0 959.2 0.8 65
2019-12-07 11:00:00 11 0 Calma 7 Oeste 0 959.3 1.4 83
2019-12-07 10:00:00 7.8 4 Sudeste 8 Este 0 958.4 1 96
2019-12-07 09:00:00 3.8 0 Calma 6 Este 0 958.4 1.3 98
2019-12-07 08:00:00 3.8 5 Este 8 Este 0 957.9 0.9 98
2019-12-07 07:00:00 3.8 0 Calma -- -- 0 957.4 0.1 98
2019-12-07 06:00:00 3.8 0 Calma 7 Este 0 957.1 0 96
2019-12-07 05:00:00 5.2 6 Este 9 Este 0 957 -0.1 98
2019-12-07 04:00:00 4.1 6 Este 8 Este 0 957.3 0.1 97
2019-12-07 03:00:00 4.5 3 Sudeste 6 Sudeste 0 957.1 0 96
2019-12-07 02:00:00 5 4 Sudeste 6 Este 0 957.1 0.5 95
2019-12-07 01:00:00 6.2 4 Este 6 Este 0 957.2 0.6 91
2019-12-07 00:00:00 7.2 4 Este 9 Sudeste 0 957.1 0.9 88
2019-12-06 23:00:00 6.7 4 Sudeste 8 Este 0 956.6 0.7 91
2019-12-06 22:00:00 6.5 4 Sudeste 6 Este 0 956.6 1 92
2019-12-06 21:00:00 7.5 0 Calma 7 Sudoeste 0 956.2 1.3 87
2019-12-06 20:00:00 10.1 3 Este 14 Nordeste 0 955.9 1.2 78
2019-12-06 19:00:00 11.9 3 Nordeste 9 Nordeste 0 955.6 1.3 73
2019-12-06 18:00:00 13.8 4 Nordeste 15 Nordeste 0 954.9 0.6 64
2019-12-06 17:00:00 16 9 Nordeste 15 Nordeste 0 954.7 -0.1 51
2019-12-06 16:00:00 16.7 7 Nordeste 15 Nordeste 0 954.3 -1 49
2019-12-06 15:00:00 16.8 7 Nordeste 19 Este 0 954.3 -1.3 52
2019-12-06 14:00:00 16.4 7 Nordeste 19 Este 0 954.8 -1 51
2019-12-06 13:00:00 15.9 7 Este 20 Nordeste 0 955.3 -0.3 53
2019-12-06 12:00:00 14.1 10 Este 21 Nordeste 0 955.6 0.4 58
2019-12-06 11:00:00 12 13 Este 24 Este 0 955.8 1.2 68
2019-12-06 10:00:00 9.1 11 Este 19 Sudeste 0 955.6 1.7 76
2019-12-06 09:00:00 6.8 6 Sudeste 15 Nordeste 0 955.2 2 86
2019-12-06 08:00:00 6.7 8 Este 19 Nordeste 0 954.6 1.4 86
2019-12-06 07:00:00 7.6 6 Sudeste 12 Este 0 953.9 0.6 82
2019-12-06 06:00:00 7.6 5 Sudeste 19 Este 0 953.2 0.2 82
2019-12-06 05:00:00 7.6 5 Sudeste 16 Este 0 953.2 0.3 83
2019-12-06 04:00:00 7.1 6 Sudeste 11 Este 0 953.3 0.1 88
2019-12-06 03:00:00 7.7 6 Sudeste 17 Nordeste 0 953 -0.5 84
2019-12-06 02:00:00 8.4 6 Este 19 Este 0 952.9 -0.4 82
2019-12-06 01:00:00 9.3 8 Este 18 Este 0 953.2 0.3 79
2019-12-06 00:00:00 8.3 6 Este 14 Este 0 953.5 1.2 83
2019-12-05 23:00:00 7.7 6 Sudeste 14 Este 0 953.3 1.5 86
2019-12-05 22:00:00 8 6 Sudeste 12 Este 0 952.9 1.7 85
2019-12-05 21:00:00 8.5 7 Este 18 Este 0 952.3 1.5 82
2019-12-05 20:00:00 9.3 9 Este 16 Este 0 951.8 1.5 79
2019-12-05 19:00:00 9.9 5 Este 16 Este 0 951.2 1.6 74
2019-12-05 18:00:00 11.3 8 Nordeste 25 Nordeste 0 950.8 1.2 67
2019-12-05 17:00:00 12.1 17 Nordeste 30 Nordeste 0 950.3 0.4 68
2019-12-05 16:00:00 12.7 12 Nordeste 26 Nordeste 0 949.6 -0.5 63
2019-12-05 15:00:00 13 12 Este 24 Nordeste 0 949.6 -0.8 64
2019-12-05 14:00:00 12.3 10 Este 22 Este 0 949.9 -0.5 68
2019-12-05 13:00:00 12.2 10 Este 23 Este 0 950.1 0.2 69
2019-12-05 12:00:00 11.5 13 Este 24 Este 0 950.4 1.3 73
2019-12-05 11:00:00 10.5 11 Este 21 Este 0 950.4 1.7 79
2019-12-05 10:00:00 8.8 5 Este 15 Nordeste 0 949.9 2 89
2019-12-05 09:00:00 6.8 6 Este 12 Nordeste 0 949.1 1.7 94
2019-12-05 08:00:00 7 7 Este 15 Este 0 948.7 1.4 94
2019-12-05 07:00:00 7.3 7 Este 18 Este 0 947.9 0.8 94
2019-12-05 06:00:00 7.1 6 Este 13 Nordeste 0 947.4 0.2 95
2019-12-05 05:00:00 7.1 4 Este 14 Nordeste 0 947.3 0.3 95
2019-12-05 04:00:00 6.2 4 Este 8 Este 0 947.1 0.2 98
2019-12-05 03:00:00 5.2 0 Calma 5 Sur 0 947.2 0.7 97
2019-12-05 02:00:00 5.4 2 Sudeste 5 Sudeste 0 947 0.7 96
2019-12-05 01:00:00 6.1 2 Sudeste 6 Sudeste 0 946.9 0.8 95
2019-12-05 00:00:00 6 2 Este 6 Sudeste 0 946.5 0.6 95
2019-12-04 23:00:00 5 2 Sudeste 5 Este 0 946.3 0.9 95
2019-12-04 22:00:00 5.9 0 Calma 4 Este 0 946.1 1.3 92
2019-12-04 21:00:00 7.4 0 Calma 6 Este 0 945.9 1.4 87
2019-12-04 20:00:00 8.1 3 Este 8 Este 0 945.4 1.9 86
2019-12-04 19:00:00 9.9 5 Nordeste 11 Nordeste 0 944.8 1.3 79
2019-12-04 18:00:00 11.6 4 Nordeste 11 Noroeste 0 944.5 0.8 72
2019-12-04 17:00:00 12.4 6 Oeste 18 Oeste 0 943.5 -0.8 63
2019-12-04 16:00:00 14.3 7 Oeste 17 Oeste 0 943.5 -0.9 57
2019-12-04 15:00:00 14.3 6 Oeste 29 Sudoeste 0 943.7 -1.4 60
2019-12-04 14:00:00 12.5 7 Sudoeste 21 Noroeste 0 944.3 -1.5 63
2019-12-04 13:00:00 13 7 Oeste 21 Noroeste 0 944.4 -1.2 68
2019-12-04 12:00:00 12.5 6 Oeste 14 Sudoeste 0 945.1 -0.1 71
2019-12-04 11:00:00 9.6 0 Calma 7 Oeste 0 945.8 0.8 88
2019-12-04 10:00:00 8.2 0 Calma 5 Este 0 945.6 0.9 93
2019-12-04 09:00:00 7.3 2 Sudeste 6 Este 0 945.2 0.5 97
2019-12-04 08:00:00 6.6 0 Calma 4 Oeste 0 945 -0.4 96
2019-12-04 07:00:00 6.9 0 Calma 3 Sudeste 0 944.7 -1.1 96
2019-12-04 06:00:00 7.4 0 Calma 7 Oeste 0 944.7 -1.4 94
2019-12-04 05:00:00 7.8 6 Oeste 11 Oeste 0 945.4 -1 93
2019-12-04 04:00:00 8.2 0 Calma 7 Oeste 0 945.8 -1.5 91
2019-12-04 03:00:00 8.1 0 Calma 6 Este 0 946.1 -1.4 91
2019-12-04 02:00:00 8.4 4 Sudeste 6 Sudeste 0 946.4 -1 89
2019-12-04 01:00:00 8.6 3 Oeste 8 Este 0 947.3 0 88
2019-12-04 00:00:00 9.2 4 Sudeste 8 Sudeste 0 947.5 0.4 85
2019-12-03 23:00:00 9.3 2 Sudeste 12 Nordeste 0 947.4 0.6 84
2019-12-03 22:00:00 9.2 4 Nordeste 17 Nordeste 0 947.3 0.6 85
2019-12-03 21:00:00 8.7 6 Nordeste 14 Nordeste 0 947.1 0.7 85
2019-12-03 20:00:00 10 6 Este 14 Nordeste 0 946.8 0.9 80
2019-12-03 19:00:00 10.4 8 Este 13 Este 0 946.7 0.8 78
2019-12-03 18:00:00 11.8 4 Nordeste 17 Nordeste 0 946.4 0.7 74
2019-12-03 17:00:00 13.6 6 Nordeste 20 Nordeste 0 945.9 -0.3 65
2019-12-03 16:00:00 14.2 11 Nordeste 22 Este 0 945.9 -0.7 63
2019-12-03 15:00:00 14.5 12 Noroeste 22 Noroeste 0 945.7 -1.6 62
2019-12-03 14:00:00 14.2 10 Este 20 Nordeste 0 946.2 -1.3 61
2019-12-03 13:00:00 13.9 10 Nordeste 18 Nordeste 0 946.6 -1.1 62
2019-12-03 12:00:00 12.3 9 Nordeste 26 Nordeste 0 947.3 -0.4 71
2019-12-03 11:00:00 9.9 14 Nordeste 26 Nordeste 0 947.5 0.1 78
2019-12-03 10:00:00 8.1 7 Nordeste 26 Norte 0 947.7 0.7 84
2019-12-03 09:00:00 7 12 Nordeste 29 Norte 0 947.7 0.6 87
2019-12-03 08:00:00 6.7 8 Nordeste 22 Nordeste 0 947.4 0.2 87
2019-12-03 07:00:00 6.7 6 Nordeste 22 Norte 0 947 -0.9 88
2019-12-03 06:00:00 6.9 5 Nordeste 15 Nordeste 0 947.1 -0.8 90
2019-12-03 05:00:00 6.9 6 Este 12 Este 0 947.2 -1.1 91
2019-12-03 04:00:00 7.2 5 Sudeste 14 Este 0 947.9 -0.8 89
2019-12-03 03:00:00 7.5 5 Este 15 Sudeste 0 947.9 -0.7 89
2019-12-03 02:00:00 7.6 5 Sudeste 15 Nordeste 0 948.3 -0.2 89
2019-12-03 01:00:00 7.8 6 Este 18 Nordeste 0 948.7 0.4 88
2019-12-03 00:00:00 8.2 7 Este 21 Nordeste 0 948.6 0.4 88
2019-12-02 23:00:00 8.4 9 Este 18 Nordeste 0 948.5 0.9 87
2019-12-02 22:00:00 8.8 9 Este 21 Nordeste 0 948.3 1.4 86
2019-12-02 21:00:00 8.9 8 Este 17 Nordeste 0 948.2 1.9 85
2019-12-02 20:00:00 9.2 8 Este 17 Este 0 947.6 2.2 85
2019-12-02 19:00:00 9.4 10 Este 24 Nordeste 0 946.9 1.6 82
2019-12-02 18:00:00 10.9 10 Nordeste 27 Nordeste 0 946.3 1.4 77
2019-12-02 17:00:00 12.7 11 Nordeste 27 Nordeste 0 945.4 0.1 67
2019-12-02 16:00:00 12.6 12 Este 29 Este 0 945.3 -0.4 71
2019-12-02 15:00:00 12.9 14 Nordeste 24 Nordeste 0 944.9 -1.4 70
2019-12-02 14:00:00 12.6 16 Este 26 Este 0 945.3 -0.9 70
2019-12-02 13:00:00 12.5 15 Este 30 Este 0 945.7 0.3 74
2019-12-02 12:00:00 11 10 Este 28 Este 0 946.3 1.2 84
2019-12-02 11:00:00 8.9 12 Este 23 Este 0 946.2 1.6 91
2019-12-02 10:00:00 8.1 13 Este 22 Nordeste 0.1 945.4 1.4 94
2019-12-02 09:00:00 7.6 11 Este 18 Este 0 945.1 1.3 96
2019-12-02 08:00:00 7.5 10 Este 17 Este 0.1 944.6 0.7 96
2019-12-02 07:00:00 7.4 7 Este 17 Este 0.3 944 0.1 96
2019-12-02 06:00:00 7.4 7 Este 15 Nordeste 0.2 943.8 -0.2 96
2019-12-02 05:00:00 7.4 8 Este 17 Este 0.6 943.9 -0.1 95
2019-12-02 04:00:00 7.8 6 Este 18 Este 1.6 943.9 -0.5 97
2019-12-02 03:00:00 7.9 9 Este 22 Este 1.1 944 -0.7 96
2019-12-02 02:00:00 8.4 8 Este 15 Este 0 944 -0.8 95
2019-12-02 01:00:00 8.8 0 Calma 3 Norte 0.1 944.4 -0.6 98
2019-12-02 00:00:00 8.7 0 Calma -- -- 0.2 944.7 -0.2 98
2019-12-01 23:00:00 8.7 0 Calma 5 Este 0 944.8 -0.3 97
2019-12-01 22:00:00 8.7 0 Calma 4 Sur 0.4 945 -0.2 96
2019-12-01 21:00:00 9.3 3 Noroeste 7 Oeste 0.5 944.9 -0.4 97
2019-12-01 20:00:00 9.4 0 Calma 8 Noroeste 0.3 945.1 -0.3 96
2019-12-01 19:00:00 9.8 3 Noroeste 6 Oeste 0.9 945.2 -0.4 96
2019-12-01 18:00:00 9.7 0 Calma 13 Oeste 0 945.3 -0.9 93
2019-12-01 17:00:00 10.2 8 Oeste 16 Oeste 0.1 945.4 -1.7 93
2019-12-01 16:00:00 11 4 Oeste 18 Noroeste 0 945.6 -2.3 90
2019-12-01 15:00:00 11.9 8 Sudoeste 19 Sudoeste 0 946.2 -2.9 91
2019-12-01 14:00:00 10.2 4 Oeste 23 Sur 0.3 947.1 -2.7 97
2019-12-01 13:00:00 9.4 6 Sudoeste 20 Oeste 0.2 947.9 -2 97
2019-12-01 12:00:00 9.5 4 Sudoeste 14 Oeste 0 949.1 -0.7 97
2019-12-01 11:00:00 8.9 5 Sudoeste 15 Sudoeste 0 949.8 -0.2 98
2019-12-01 10:00:00 8.7 0 Calma 6 Noroeste 0 949.9 -0.4 99
2019-12-01 09:00:00 7.8 0 Calma 7 Sur 0 949.8 -0.6 99
2019-12-01 08:00:00 7.7 0 Calma 9 Noroeste 0 950 -0.8 99
2019-12-01 07:00:00 8 7 Oeste 12 Oeste 0 950.3 -1.4 99
2019-12-01 06:00:00 5.1 0 Calma 5 Noroeste 0.1 950.4 -1.6 99
2019-12-01 05:00:00 4.8 2 Sudeste 6 Este 0 950.8 -1.7 98
2019-12-01 04:00:00 6.2 0 Calma 3 Sudoeste 0 951.7 -1.3 95
2019-12-01 03:00:00 8.5 0 Calma 15 Oeste 0 952 -1.4 94
2019-12-01 02:00:00 8.9 3 Oeste 11 Noroeste 0 952.5 -1.1 95
2019-12-01 01:00:00 10 6 Noroeste 12 Noroeste 0 953 -1 94
2019-12-01 00:00:00 11.6 4 Oeste 20 Oeste 0.6 953.4 -1.3 97
2019-11-30 23:00:00 12.1 5 Noroeste 12 Sur 0.2 953.6 -1 93
2019-11-30 22:00:00 12.7 3 Sudoeste 13 Sudoeste 0 954 -0.6 85
2019-11-30 21:00:00 12.6 3 Oeste 13 Noroeste 0 954.7 0 82
2019-11-30 20:00:00 12.5 8 Oeste 13 Oeste 0 954.6 0 80
2019-11-30 19:00:00 12.5 0 Calma 19 Oeste 0 954.6 -0.2 78
2019-11-30 18:00:00 13.4 13 Oeste 22 Oeste 0 954.7 -0.8 75
2019-11-30 17:00:00 14.7 10 Oeste 20 Oeste 0 954.6 -1.8 69
2019-11-30 16:00:00 14.6 12 Oeste 21 Oeste 0 954.8 -2.2 72
2019-11-30 15:00:00 14.5 10 Oeste 21 Oeste 0 955.5 -2.3 76
2019-11-30 14:00:00 14.9 13 Oeste 22 Oeste 0 956.4 -1.5 75
2019-11-30 13:00:00 14.7 8 Oeste 13 Noroeste 0 957 -0.6 78
2019-11-30 12:00:00 14.5 4 Sudoeste 12 Oeste 0 957.8 0.2 79
2019-11-30 11:00:00 12.4 0 Calma 3 Sudeste 0 957.9 0.5 93
2019-11-30 10:00:00 10.7 0 Calma 6 Este 0 957.6 0.1 99
2019-11-30 09:00:00 6.8 3 Este 6 Sudeste 0 957.6 0.4 99
2019-11-30 08:00:00 6.3 3 Sudeste 8 Este 0.1 957.4 -0.1 99
2019-11-30 07:00:00 6.1 4 Este 6 Este 0 957.5 0 99
2019-11-30 06:00:00 6.9 4 Sudeste 8 Este 0 957.2 -0.4 98
2019-11-30 05:00:00 7.8 4 Sudeste 8 Este 0 957.5 -0.6 98
2019-11-30 04:00:00 8.4 4 Sudeste 7 Este 0 957.5 -0.6 99
2019-11-30 03:00:00 7.2 4 Este 7 Este 0 957.6 -0.5 99
2019-11-30 02:00:00 6.5 0 Calma 6 Este 0 958.1 -0.1 98
2019-11-30 01:00:00 6.7 3 Este 6 Este 0 958.1 0.1 97
2019-11-30 00:00:00 7.2 3 Sudeste 5 Este 0 958.1 0.2 97
2019-11-29 23:00:00 7.9 4 Este 6 Este 0 958.2 0.3 96
2019-11-29 22:00:00 8.6 0 Calma 3 Este 0 958 0.2 95
2019-11-29 21:00:00 9.6 0 Calma 5 Este 0 957.9 0.5 94
2019-11-29 20:00:00 10.2 3 Sudeste 5 Este 0 957.9 0.7 92
2019-11-29 19:00:00 11.6 2 Sudeste 5 Sudeste 0 957.8 0.6 88
2019-11-29 18:00:00 13.5 0 Calma 6 Norte 0 957.4 0.1 78
2019-11-29 17:00:00 16.8 4 Norte 10 Noroeste 0 957.2 -0.6 62
2019-11-29 16:00:00 17.7 6 Noroeste 14 Oeste 0 957.2 -0.8 58
2019-11-29 15:00:00 18.1 4 Oeste 15 Noroeste 0 957.3 -1.3 58
2019-11-29 14:00:00 16.7 4 Noroeste 15 Noroeste 0 957.8 -0.8 63
2019-11-29 13:00:00 16.5 4 Oeste 14 Noroeste 0 958 0 66
2019-11-29 12:00:00 15.5 6 Noroeste 18 Noroeste 0 958.6 1 73
2019-11-29 11:00:00 13.4 0 Calma 5 Sur 0 958.6 1.2 91
2019-11-29 10:00:00 9.9 3 Este 7 Este 0 958 1 99
2019-11-29 09:00:00 6.8 5 Este 8 Este 0.1 957.6 0.9 99
2019-11-29 08:00:00 6.4 6 Este 9 Este 0 957.4 0.9 99
2019-11-29 07:00:00 6.4 5 Este 8 Este 0 957 0.7 99
2019-11-29 06:00:00 6.1 4 Este 6 Este 0 956.7 0.4 99
2019-11-29 05:00:00 6.3 4 Este 5 Este 0 956.5 0.2 98
2019-11-29 04:00:00 6.3 3 Sudeste 6 Este 0 956.3 0.2 99
2019-11-29 03:00:00 7 3 Sudeste 6 Este 0 956.3 -0.1 98
2019-11-29 02:00:00 7.8 2 Sudeste 3 Sudeste 0 956.3 -0.1 99
2019-11-29 01:00:00 7.7 0 Calma 4 Este 0 956.1 0.1 98
2019-11-29 00:00:00 7.4 2 Este 4 Este 0 956.4 0.7 97
2019-11-28 23:00:00 8.5 0 Calma 5 Sur 0 956.4 1.1 95
2019-11-28 22:00:00 10 0 Calma 4 Noroeste 0 956 0.8 93
2019-11-28 21:00:00 11.6 0 Calma 6 Este 0 955.7 1.1 92
2019-11-28 20:00:00 12.2 0 Calma 4 Oeste 0 955.3 1 89
2019-11-28 19:00:00 12.5 0 Calma 6 Sudoeste 0 955.2 0.8 87
2019-11-28 18:00:00 13.1 3 Sudoeste 12 Sur 0 954.6 0.1 82
2019-11-28 17:00:00 14.6 6 Sudoeste 13 Sudoeste 0 954.3 -0.5 73
2019-11-28 16:00:00 15.5 6 Sudeste 15 Sudeste 0 954.4 -1.2 73
2019-11-28 15:00:00 14.8 3 Sur 12 Sudoeste 0 954.5 -1.4 71
2019-11-28 14:00:00 14.6 3 Oeste 12 Oeste 0 954.8 -1.2 69
2019-11-28 13:00:00 14.4 4 Oeste 11 Oeste 0 955.6 0.1 69
2019-11-28 12:00:00 13.6 5 Oeste 14 Oeste 0 955.9 1 72
2019-11-28 11:00:00 12.8 5 Oeste 13 Oeste 0 956 1.4 74
2019-11-28 10:00:00 12.2 7 Noroeste 14 Noroeste 0 955.5 1.3 80
2019-11-28 09:00:00 10.1 3 Oeste 8 Noroeste 0 954.9 1 89
2019-11-28 08:00:00 9.9 0 Calma 6 Oeste 0 954.6 0.8 93
2019-11-28 07:00:00 9.7 0 Calma 4 Sudoeste 0 954.2 0.5 94
2019-11-28 06:00:00 9.6 0 Calma 4 Sudoeste 0 953.9 0.4 95
2019-11-28 05:00:00 9.2 0 Calma 6 Sur 0 953.8 0.2 97
2019-11-28 04:00:00 8.8 0 Calma 4 Este 0 953.7 -0.3 97
2019-11-28 03:00:00 8.3 2 Sudeste 7 Este 0 953.5 -0.4 98
2019-11-28 02:00:00 7.7 4 Sudeste 7 Este 0 953.6 -0.1 99
2019-11-28 01:00:00 6.3 4 Este 7 Este 0 954 0.5 97
2019-11-28 00:00:00 6.1 3 Sudeste 6 Este 0 953.9 0.8 96
2019-11-27 23:00:00 6.6 4 Este 5 Este 0 953.7 1.3 95
2019-11-27 22:00:00 7.1 3 Sudeste 6 Sudeste 0 953.5 1.4 95
2019-11-27 21:00:00 8 2 Sudeste 5 Este 0 953.1 1.4 91
2019-11-27 20:00:00 9.9 3 Este 6 Oeste 0 952.4 1.5 85
2019-11-27 19:00:00 12.7 5 Oeste 18 Oeste 0 952.1 1.1 73
2019-11-27 18:00:00 13.2 8 Oeste 17 Oeste 0 951.7 0.5 76
2019-11-27 17:00:00 14.5 10 Oeste 27 Oeste 0 950.9 -0.7 69
2019-11-27 16:00:00 14.6 13 Oeste 30 Oeste 0 951 -1.2 67
2019-11-27 15:00:00 15.6 10 Oeste 27 Sudoeste 0 951.2 -1.8 71
2019-11-27 14:00:00 14.7 14 Oeste 23 Oeste 0 951.6 -1.2 71
2019-11-27 06:00:00 10.1 0 Calma 14 Oeste 0 950 -0.1 97
2019-11-27 05:00:00 11 11 Oeste 18 Sudoeste 0 949.8 0 96
2019-11-27 04:00:00 12.1 4 Oeste 15 Oeste 0 950.1 -0.2 95
2019-11-27 03:00:00 12.2 10 Oeste 16 Oeste 0 950.1 -0.3 95
2019-11-27 02:00:00 12.6 8 Oeste 14 Oeste 0 949.8 -0.6 98
2019-11-27 01:00:00 12.9 10 Oeste 19 Oeste 0 950.3 -0.1 97
2019-11-27 00:00:00 13.6 9 Oeste 15 Oeste 1.2 950.4 0.3 99
2019-11-26 23:00:00 13.7 2 Sudoeste 17 Noroeste 1.2 950.4 0.2 99
2019-11-26 22:00:00 13.6 6 Oeste 28 Oeste 0.8 950.4 0.1 98
2019-11-26 21:00:00 13.5 8 Sudoeste 27 Sudoeste 0 950.1 0 97
2019-11-26 20:00:00 13.6 9 Sudoeste 30 Sudoeste 0 950.2 -0.1 95
2019-11-26 19:00:00 13.6 8 Sudoeste 24 Sudoeste 0 950.3 -0.1 96
2019-11-26 18:00:00 13.6 9 Sudoeste 24 Sudoeste 0 950.1 -0.7 96
2019-11-26 17:00:00 13.6 6 Oeste 23 Sudoeste 0 950.3 -1 96
2019-11-26 16:00:00 13.8 6 Oeste 19 Sudoeste 0.1 950.4 -1.7 97
2019-11-26 15:00:00 13.5 5 Sudoeste 17 Sudoeste 0.2 950.8 -2.2 98
2019-11-26 14:00:00 13.1 6 Sudoeste 21 Sudoeste 0.2 951.3 -1.7 98
2019-11-26 13:00:00 12.8 5 Sudoeste 15 Sudoeste 0.3 952.1 -0.9 97
2019-11-26 12:00:00 12.7 0 Calma 15 Sur 0.1 953 0 97
2019-11-26 11:00:00 12.7 4 Sur 14 Sudoeste 0.1 953 0.2 94
2019-11-26 10:00:00 12.5 5 Sudoeste 17 Sur 0 953 0.4 97
2019-11-26 09:00:00 12.2 0 Calma 6 Sudoeste 0 953 0.3 98
2019-11-26 08:00:00 10.9 0 Calma 6 Noroeste 0 952.8 -0.1 98
2019-11-26 07:00:00 10.2 2 Sudoeste 4 Sudoeste 0 952.6 -0.7 99
2019-11-26 06:00:00 9.9 3 Este 4 Este 0 952.7 -0.8 99
2019-11-26 05:00:00 9.2 3 Sudeste 5 Este 0 952.9 -0.8 99
2019-11-26 04:00:00 8.1 3 Sudeste 7 Este 0 953.3 -1.1 99
2019-11-26 03:00:00 8 4 Este 6 Este 0 953.5 -0.8 97
2019-11-26 02:00:00 9.7 0 Calma -- -- 0 953.7 -0.7 98
2019-11-26 01:00:00 10.3 0 Calma -- -- 0 954.4 0.1 99
2019-11-26 00:00:00 10.3 0 Calma -- -- 0 954.3 0.1 99
2019-11-25 23:00:00 8.8 0 Calma -- -- 0 954.4 0.7 98
2019-11-25 22:00:00 9.5 0 Calma -- -- 0 954.3 0.7 98
2019-11-25 21:00:00 10.4 0 Calma 5 Noroeste 0 954.2 0.9 96
2019-11-25 20:00:00 12.5 4 Oeste 8 Oeste 0 953.7 0.8 94
2019-11-25 19:00:00 14.1 3 Oeste 12 Oeste 0 953.6 0.8 97
2019-11-25 18:00:00 14.4 7 Oeste 13 Oeste 0 953.3 0.2 97
2019-11-25 17:00:00 14.6 5 Oeste 15 Oeste 0 952.9 -0.3 97
2019-11-25 16:00:00 14.4 9 Oeste 17 Oeste 0 952.8 -0.8 97
2019-11-25 15:00:00 13.9 12 Oeste 24 Oeste 0 953.1 -1.3 98
2019-11-25 14:00:00 13.7 13 Oeste 24 Oeste 0 953.2 -1.3 98
2019-11-25 13:00:00 13.2 10 Oeste 24 Oeste 0 953.6 -0.5 99
2019-11-25 12:00:00 12.6 9 Noroeste 18 Oeste 0 954.4 0.8 99
2019-11-25 11:00:00 11.9 3 Noroeste 9 Sudoeste 0.5 954.5 1.1 99
2019-11-25 10:00:00 11.3 3 Oeste 11 Oeste 0.3 954.1 0.9 99
2019-11-25 09:00:00 10.4 3 Oeste 12 Sudoeste 0.1 953.6 0.7 99
2019-11-25 08:00:00 9.9 3 Noroeste 8 Sudoeste 0.2 953.4 0.2 99
2019-11-25 07:00:00 9.9 2 Noroeste 13 Noroeste 0 953.2 -0.3 98
2019-11-25 06:00:00 10.3 10 Oeste 18 Oeste 0 952.9 -0.7 97
2019-11-25 05:00:00 10.3 4 Noroeste 13 Noroeste 0 953.2 -0.6 95
2019-11-25 04:00:00 10.5 3 Oeste 12 Oeste 0 953.5 -0.8 93
2019-11-25 03:00:00 10.7 10 Oeste 18 Oeste 0 953.6 -0.9 91
2019-11-25 02:00:00 9.8 8 Noroeste 15 Noroeste 0 953.8 -0.6 93
2019-11-25 01:00:00 9.5 0 Calma 8 Noroeste 0 954.3 0 94
2019-11-25 00:00:00 8.1 4 Oeste 10 Oeste 0 954.5 0.2 95
2019-11-24 23:00:00 6.9 0 Calma 5 Oeste 0 954.4 0.5 94
2019-11-24 22:00:00 6.7 0 Calma 4 Este 0 954.3 0.9 91
2019-11-24 21:00:00 7.8 2 Este 5 Este 0 954.3 1.2 90
2019-11-24 20:00:00 9.3 0 Calma 5 Oeste 0 953.9 1 80
2019-11-24 19:00:00 12.1 3 Oeste 8 Oeste 0 953.4 0.7 70
2019-11-24 18:00:00 13.2 3 Noroeste 12 Noroeste 0 953.1 0.4 63
2019-11-24 17:00:00 13.5 4 Oeste 12 Noroeste 0 952.9 -0.2 60
2019-11-24 16:00:00 13.8 9 Noroeste 24 Oeste 0 952.7 -1 59
2019-11-24 15:00:00 14.8 13 Noroeste 26 Noroeste 0 952.7 -1.7 54
2019-11-24 14:00:00 14.8 9 Noroeste 22 Noroeste 0 953.1 -1.1 57
2019-11-24 13:00:00 12.5 9 Noroeste 26 Oeste 0 953.7 0.1 67
2019-11-24 12:00:00 12.3 12 Noroeste 23 Norte 0 954.4 0.7 67
2019-11-24 11:00:00 10.2 8 Noroeste 19 Noroeste 0 954.2 1.2 81
2019-11-24 10:00:00 7.6 5 Noroeste 14 Noroeste 0 953.6 1.4 93
2019-11-24 09:00:00 5.6 7 Noroeste 17 Noroeste 0 953.7 1.9 99
2019-11-24 08:00:00 1.8 0 Calma 4 Sudoeste 0 953 1.9 97
2019-11-24 07:00:00 2.6 3 Sudoeste 7 Sudoeste 0 952.2 1.1 97
2019-11-24 06:00:00 2.4 4 Sudoeste 6 Sudoeste 0 951.8 1.2 96
2019-11-24 05:00:00 3.2 0 Calma 9 Sudoeste 0 951.1 0.5 92
2019-11-24 04:00:00 5.6 4 Oeste 14 Noroeste 0 951.1 0.3 90
2019-11-24 03:00:00 6.5 5 Noroeste 20 Noroeste 0 950.6 0.1 86
2019-11-24 02:00:00 7 7 Norte 22 Norte 0 950.6 0 84
2019-11-24 01:00:00 7.5 12 Norte 28 Noroeste 0 950.8 0.2 83
2019-11-24 00:00:00 7.5 9 Noroeste 22 Norte 0 950.5 0.5 84
2019-11-23 23:00:00 7.1 8 Noroeste 18 Noroeste 0 950.6 1.3 87
2019-11-23 22:00:00 5.6 5 Oeste 9 Oeste 0 950.6 2 89
2019-11-23 21:00:00 6.3 0 Calma 12 Noroeste 0 950 2.4 84
2019-11-23 20:00:00 6.8 3 Oeste 8 Oeste 0 949.3 2.3 81
2019-11-23 19:00:00 8.7 7 Oeste 14 Noroeste 0 948.6 2.4 70
2019-11-23 18:00:00 10.4 8 Oeste 28 Noroeste 0 947.6 2 64
2019-11-23 17:00:00 12.1 17 Noroeste 34 Noroeste 0 947 1.6 59
2019-11-23 16:00:00 12.9 22 Noroeste 42 Noroeste 0 946.2 0.9 54
2019-11-23 15:00:00 13 23 Noroeste 45 Noroeste 0 945.6 0 56
2019-11-23 14:00:00 13.1 26 Noroeste 48 Noroeste 0 945.4 0.6 54
2019-11-23 13:00:00 12.5 22 Noroeste 37 Oeste 0 945.3 1.8 60
2019-11-23 12:00:00 11.6 21 Oeste 35 Oeste 0 945.6 2.9 68
2019-11-23 11:00:00 10.3 22 Noroeste 39 Oeste 0 944.8 3.7 72
2019-11-23 10:00:00 9.5 15 Noroeste 29 Noroeste 0 943.5 3.3 79
2019-11-23 09:00:00 8.4 12 Oeste 22 Noroeste 0 942.7 2.9 84
2019-11-23 08:00:00 7.7 10 Oeste 27 Oeste 0 941.1 1.9 89
2019-11-23 07:00:00 8.2 13 Oeste 27 Oeste 0 940.2 1.6 90
2019-11-23 06:00:00 8.4 13 Oeste 36 Noroeste 0 939.8 2 87
2019-11-23 05:00:00 9.1 18 Noroeste 40 Noroeste 0 939.2 1.6 85
2019-11-23 04:00:00 10 28 Oeste 53 Noroeste 0 938.6 1.2 78
2019-11-23 03:00:00 10.2 28 Oeste 46 Oeste 0 937.8 0.4 77
2019-11-23 02:00:00 10.8 24 Oeste 51 Oeste 0 937.6 0.4 75
2019-11-23 01:00:00 10.3 19 Oeste 33 Oeste 0 937.4 0.4 79
2019-11-23 00:00:00 10.2 19 Oeste 39 Oeste 0 937.4 1.2 78
2019-11-22 23:00:00 10.9 20 Oeste 50 Oeste 0 937.2 1.3 74
2019-11-22 22:00:00 12 23 Oeste 50 Oeste 0 937 2.1 78
2019-11-22 21:00:00 12.2 25 Oeste 41 Noroeste 0 936.2 2.5 79
2019-11-22 20:00:00 12.1 24 Oeste 48 Oeste 0 935.9 2.4 80
2019-11-22 19:00:00 12.3 24 Oeste 43 Oeste 0 934.9 2.4 85
2019-11-22 18:00:00 12.8 27 Oeste 47 Oeste 0 933.7 0.1 90
2019-11-22 17:00:00 13.8 33 Oeste 50 Oeste 11 933.5 -1.8 96
2019-11-22 16:00:00 14.4 13 Oeste 44 Sudoeste 2.8 932.5 -3.5 99
2019-11-22 15:00:00 13.3 10 Sudoeste 45 Sudoeste 8 933.6 -4.5 99
2019-11-22 14:00:00 13.3 14 Oeste 54 Oeste 3.6 935.3 -3.3 97
2019-11-22 13:00:00 13 13 Oeste 44 Noroeste 4.2 936 -3.2 99
2019-11-22 12:00:00 12.8 10 Sudoeste 28 Sudoeste 5.2 938.1 -1.7 99
2019-11-22 11:00:00 12.1 9 Sudoeste 32 Sudoeste 0.3 938.6 -1.5 99
2019-11-22 10:00:00 12 5 Sur 30 Oeste 0.1 939.2 -1.4 99
2019-11-22 09:00:00 11.6 9 Sudoeste 21 Sudoeste 0 939.8 -1.6 99
2019-11-22 08:00:00 10.6 0 Calma 12 Sudoeste 0.1 940.1 -2.1 98
2019-11-22 07:00:00 10.2 3 Oeste 17 Noroeste 0.5 940.6 -2 98
2019-11-22 06:00:00 10.2 6 Noroeste 16 Oeste 0.1 941.4 -1.3 98
2019-11-22 05:00:00 10.4 10 Oeste 17 Oeste 0 942.2 -0.7 98
2019-11-22 04:00:00 10.2 4 Sudoeste 14 Oeste 0 942.6 -1.3 98
2019-11-22 03:00:00 10.1 3 Noroeste 13 Oeste 0 942.7 -1.3 98
2019-11-22 02:00:00 10.3 3 Oeste 13 Sudoeste 0 942.9 -1.4 98
2019-11-22 01:00:00 10.5 0 Calma 14 Oeste 0 943.9 -0.8 98
2019-11-22 00:00:00 10.8 8 Oeste 17 Oeste 0 944 -0.4 98
2019-11-21 23:00:00 11 4 Sudoeste 13 Sudoeste 0 944.3 -0.3 97
2019-11-21 22:00:00 11.2 5 Oeste 13 Oeste 0.1 944.7 0.6 98
2019-11-21 21:00:00 11.4 3 Oeste 10 Sudoeste 0 944.4 0.7 98
2019-11-21 20:00:00 11.2 0 Calma 8 Sur 0 944.6 1 97
2019-11-21 19:00:00 11.3 2 Oeste 6 Sudoeste 0 944.1 0.5 96
2019-11-21 18:00:00 12.1 2 Oeste 9 Sur 0 943.7 -0.4 95
2019-11-21 17:00:00 12.2 3 Sudoeste 9 Oeste 0.1 943.6 -0.9 95
2019-11-21 16:00:00 12.1 5 Oeste 9 Oeste 0.1 943.6 -1.4 95
2019-11-21 15:00:00 12.1 4 Oeste 9 Oeste 1.1 944.1 -1.5 96
2019-11-21 14:00:00 11.3 4 Oeste 12 Oeste 0.1 944.5 -1.3 96
2019-11-21 13:00:00 10.7 3 Oeste 9 Noroeste 0.1 945 -0.5 97
2019-11-21 12:00:00 10.7 3 Noroeste 8 Noroeste 1.9 945.6 0.2 98
2019-11-21 11:00:00 10 4 Noroeste 9 Sudoeste 2.8 945.8 0.4 98
2019-11-21 10:00:00 9.8 4 Sudoeste 11 Oeste 0.3 945.5 0.4 99
2019-11-21 09:00:00 9.4 0 Calma 8 Sudoeste 0.4 945.4 0.3 99
2019-11-21 08:00:00 8.9 0 Calma 8 Oeste 0.8 945.4 0.3 99
2019-11-21 07:00:00 8.8 2 Sudoeste 8 Oeste 0 945.1 -0.5 99
2019-11-21 06:00:00 8.8 0 Calma 8 Sudoeste 0 945.1 -0.7 99
2019-11-21 05:00:00 8.8 3 Oeste 11 Oeste 0 945.1 -0.7 99
2019-11-21 04:00:00 8.5 4 Oeste 8 Noroeste 0 945.6 -0.8 99
2019-11-21 03:00:00 8.5 0 Calma 10 Noroeste 0.1 945.8 -0.6 99
2019-11-21 02:00:00 8.3 0 Calma 10 Noroeste 0 945.8 -0.4 99
2019-11-21 01:00:00 8.1 2 Noroeste 9 Noroeste 0.1 946.4 0 99
2019-11-21 00:00:00 8.1 2 Noroeste 8 Sur 0 946.4 0.5 99
2019-11-20 23:00:00 8.1 3 Sudoeste 12 Sur 0.1 946.2 0.8 99
2019-11-20 22:00:00 8 0 Calma 10 Sudoeste 0.1 946.4 1.3 99
2019-11-20 21:00:00 8.1 3 Sudoeste 10 Oeste 0.2 945.9 0.8 99
2019-11-20 20:00:00 8.2 3 Noroeste 8 Sudoeste 0 945.4 0.3 99
2019-11-20 19:00:00 8.2 4 Oeste 9 Noroeste 0 945.1 0.4 99
2019-11-20 18:00:00 8.2 0 Calma 8 Oeste 0 945.1 0.3 99
2019-11-20 17:00:00 8.1 2 Noroeste 15 Sur 0 945.1 -0.2 99
2019-11-20 16:00:00 7.8 4 Sudeste 16 Sur 0 944.7 -1.5 98
2019-11-20 15:00:00 7.8 5 Sudeste 18 Sur 0.9 944.8 -2.1 97
2019-11-20 14:00:00 7.6 7 Sudeste 18 Sudeste 0 945.3 -2.5 95
2019-11-20 13:00:00 7.4 4 Sudeste 14 Sur 0.3 946.2 -1.6 92
2019-11-20 12:00:00 7.1 5 Este 12 Este 0 946.9 -0.7 88
2019-11-20 11:00:00 7 0 Calma 10 Sur 0.4 947.8 0.1 89
2019-11-20 10:00:00 6.6 5 Sudeste 14 Sur 0.1 947.8 0.3 91
2019-11-20 09:00:00 6.4 5 Sudeste 15 Sur 0.5 947.6 0 91
2019-11-20 08:00:00 6.5 5 Sur 12 Sur 0 947.7 -0.4 88
2019-11-20 07:00:00 5.4 3 Sudeste 10 Sur 0 947.5 -1.3 94
2019-11-20 06:00:00 3.3 3 Este 7 Este 0 947.6 -1.7 97
2019-11-20 05:00:00 3.2 4 Sudeste 6 Este 0 948.1 -1.6 97
2019-11-20 04:00:00 2.4 5 Este 6 Este 0 948.8 -1.7 97
2019-11-20 03:00:00 2 3 Sudeste 5 Sudeste 0 949.3 -1.1 98
2019-11-20 02:00:00 1.8 4 Este 7 Este 0 949.7 -1.1 96
2019-11-20 01:00:00 1.8 0 Calma 8 Este 0 950.5 -0.4 94
2019-11-20 00:00:00 2.4 4 Sudeste 7 Este 0 950.4 -0.7 95
2019-11-19 23:00:00 2.9 3 Este 6 Este 0 950.8 -0.6 92
2019-11-19 22:00:00 4 4 Sudeste 6 Este 0 950.9 -0.1 92
2019-11-19 21:00:00 5 3 Este 5 Sudeste 0 951.1 0.2 90
2019-11-19 20:00:00 7.4 0 Calma 6 Noroeste 0 951.4 0.5 82
2019-11-19 19:00:00 9.1 2 Oeste 7 Sudoeste 0 951 -0.1 75
2019-11-19 18:00:00 10.9 3 Sur 10 Sudeste 0 950.9 -0.6 63
2019-11-19 17:00:00 12.5 4 Sur 11 Sur 0 950.9 -1.2 55
2019-11-19 16:00:00 13.1 4 Sudoeste 14 Oeste 0 951.1 -2 47
2019-11-19 15:00:00 13.5 4 Oeste 15 Sur 0 951.5 -2.1 49
2019-11-19 14:00:00 13.7 3 Sur 13 Oeste 0 952.1 -2.1 53
2019-11-19 13:00:00 12.1 5 Oeste 11 Sudoeste 0 953.1 -1.2 59
2019-11-19 12:00:00 10.1 2 Sur 9 Sur 0 953.6 -0.6 67
2019-11-19 11:00:00 8.1 0 Calma 5 Este 0 954.2 0.4 84
2019-11-19 10:00:00 5.3 3 Sudeste 5 Este 0 954.3 0.7 95
2019-11-19 09:00:00 2.3 3 Sudeste 5 Este 0 954.2 0.7 97
2019-11-19 08:00:00 1.6 4 Sudeste 7 Este 0 953.8 0.7 97
2019-11-19 07:00:00 1.8 5 Este 7 Este 0 953.6 0.3 96
2019-11-19 06:00:00 2 3 Sudeste 6 Este 0 953.5 0.2 97
2019-11-19 05:00:00 1.9 2 Sudeste 7 Este 0 953.1 -0.2 96
2019-11-19 04:00:00 2 4 Sudeste 6 Este 0 953.3 -0.7 96
2019-11-19 03:00:00 2.4 4 Este 8 Este 0 953.3 -0.8 95
2019-11-19 02:00:00 2.6 5 Este 8 Este 0 953.3 -1 96
2019-11-19 01:00:00 2.4 4 Sudeste 7 Sudeste 0 954 -0.1 96
2019-11-19 00:00:00 2.2 4 Este 7 Este 0 954.1 0.4 96
2019-11-18 23:00:00 2.7 3 Este 8 Este 0 954.3 1 95
2019-11-18 22:00:00 2.8 4 Este 6 Este 0 954.1 1.4 94
2019-11-18 21:00:00 3.7 3 Este 5 Este 0 953.7 1.6 92
2019-11-18 20:00:00 4.5 0 Calma 6 Sudeste 0 953.3 1.7 89
2019-11-18 19:00:00 6.2 2 Este 8 Este 0 952.7 1.3 83
2019-11-18 18:00:00 11.1 3 Noroeste 15 Nordeste 0 952.1 0.9 59
2019-11-18 17:00:00 13.4 8 Norte 22 Norte 0 951.6 0.3 48
2019-11-18 16:00:00 14 9 Noroeste 19 Oeste 0 951.4 -0.1 48
2019-11-18 15:00:00 13.7 8 Norte 19 Nordeste 0 951.2 -0.5 51
2019-11-18 14:00:00 13.2 8 Nordeste 19 Noroeste 0 951.3 -0.2 55
2019-11-18 13:00:00 12.5 9 Norte 19 Norte 0 951.5 0.4 61
2019-11-18 12:00:00 11.1 11 Noroeste 27 Norte 0 951.7 1.2 67
2019-11-18 11:00:00 8.8 12 Norte 21 Noroeste 0 951.5 2.1 75
2019-11-18 10:00:00 6.7 4 Nordeste 16 Norte 0 951.1 2.6 83
2019-11-18 09:00:00 4.9 2 Norte 14 Nordeste 0 950.5 2.5 87
2019-11-18 08:00:00 3.6 0 Calma 10 Oeste 0 949.4 1.9 90
2019-11-18 07:00:00 4.6 3 Nordeste 14 Oeste 0 948.5 1.6 88
2019-11-18 06:00:00 5.3 7 Noroeste 22 Noroeste 0 948 0.8 89
2019-11-18 05:00:00 6.1 8 Noroeste 35 Norte 0 947.5 0.5 90
2019-11-18 04:00:00 7.1 13 Noroeste 29 Oeste 0 946.9 -0.5 92
2019-11-18 03:00:00 9.1 13 Noroeste 30 Noroeste 0.2 947.2 -0.7 90
2019-11-18 02:00:00 10.4 11 Noroeste 21 Oeste 0.8 947 -1.6 98
2019-11-18 01:00:00 10.8 14 Oeste 27 Oeste 0.3 947.4 -1.7 98
2019-11-18 00:00:00 10.7 16 Oeste 27 Oeste 3.4 947.9 -1.7 99
2019-11-17 23:00:00 10.8 11 Oeste 26 Oeste 0 948.6 -1.5 99
2019-11-17 22:00:00 11 14 Oeste 24 Oeste 0.6 949.1 -1.4 99
2019-11-17 21:00:00 10.7 12 Oeste 19 Noroeste 0 949.6 -1.1 99
2019-11-17 20:00:00 10.2 5 Oeste 22 Noroeste 0.2 950.1 -1 99
2019-11-17 19:00:00 9.8 10 Noroeste 19 Noroeste 0.4 950.5 -1.1 99
2019-11-17 18:00:00 8.9 4 Oeste 12 Sudoeste 0.1 950.7 -1.5 99
2019-11-17 17:00:00 8.5 7 Oeste 14 Oeste 0.1 951.1 -1.7 99
2019-11-17 16:00:00 8.4 4 Oeste 9 Oeste 0.1 951.6 -2.1 99
2019-11-17 15:00:00 7.8 3 Sudoeste 14 Noroeste 0.4 952.2 -2.3 99
2019-11-17 14:00:00 7.8 8 Oeste 17 Noroeste 0 952.8 -2.1 98
2019-11-17 13:00:00 7.1 6 Noroeste 21 Oeste 0 953.7 -0.7 98
2019-11-17 12:00:00 6.2 2 Noroeste 10 Oeste 0.3 954.5 0.4 98
2019-11-17 11:00:00 5.3 4 Oeste 13 Sudoeste 0.4 954.9 1.2 97
2019-11-17 10:00:00 4.7 4 Oeste 11 Sudoeste 1.1 954.4 0.6 97
2019-11-17 09:00:00 4.7 6 Oeste 14 Sudoeste 0.2 954.1 0.6 95
2019-11-17 08:00:00 4.8 0 Calma 12 Noroeste 0.1 953.7 0.1 93
2019-11-17 07:00:00 3.9 0 Calma 4 Oeste 0 953.8 -0.3 90
2019-11-17 06:00:00 2.8 0 Calma 4 Este 0 953.5 -0.3 92
2019-11-17 05:00:00 2.2 4 Este 6 Este 0 953.6 -0.7 92
2019-11-17 04:00:00 0.9 3 Este 5 Este 0 954.1 -0.4 95
2019-11-17 03:00:00 0.2 3 Este 7 Este 0 953.8 -0.6 93
2019-11-17 02:00:00 0 4 Este 7 Este 0 954.3 -0.3 91
2019-11-17 01:00:00 0 3 Sudeste 6 Este 0 954.5 -0.1 91
2019-11-17 00:00:00 0 4 Este 7 Este 0 954.4 0.1 88
2019-11-16 23:00:00 0.2 3 Sudeste 6 Este 0 954.6 0.8 88
2019-11-16 22:00:00 0.6 3 Sudeste 6 Este 0 954.6 1.2 84
2019-11-16 21:00:00 1.7 4 Este 8 Este 0 954.3 1.3 78
2019-11-16 20:00:00 2.7 5 Este 7 Este 0 953.8 1.2 73
2019-11-16 19:00:00 6.3 0 Calma 9 Noroeste 0 953.4 1.3 55
2019-11-16 18:00:00 9.2 5 Oeste 22 Noroeste 0 953 1.2 46
2019-11-16 17:00:00 12.3 12 Noroeste 23 Noroeste 0 952.6 1 39
2019-11-16 16:00:00 12.4 15 Oeste 23 Oeste 0 952.1 0.2 39
2019-11-16 15:00:00 12.6 12 Oeste 21 Oeste 0 951.8 -0.6 35
2019-11-16 14:00:00 13.2 4 Sur 14 Sudoeste 0 951.6 -0.6 38
2019-11-16 13:00:00 12.2 2 Sur 12 Este 0 951.9 0.7 47
2019-11-16 12:00:00 9.2 5 Nordeste 16 Nordeste 0 952.4 1.8 56
2019-11-16 11:00:00 7 4 Norte 17 Nordeste 0 952.2 2.7 66
2019-11-16 10:00:00 4 4 Nordeste 18 Nordeste 0 951.2 2.4 77
2019-11-16 09:00:00 1.5 4 Este 9 Este 0 950.6 2.8 86
2019-11-16 08:00:00 -0.4 0 Calma 6 Norte 0 949.5 2.2 89
2019-11-16 07:00:00 1.4 3 Noroeste 12 Noroeste 0 948.8 1.6 84
2019-11-16 06:00:00 -0.3 5 Norte 10 Noroeste 0 947.8 1.2 92
2019-11-16 05:00:00 0.6 5 Noroeste 12 Noroeste 0 947.3 0.7 87
2019-11-16 04:00:00 0 4 Norte 9 Norte 0 947.2 0.9 90
2019-11-16 03:00:00 0 2 Este 5 Oeste 0 946.6 0.8 85
2019-11-16 02:00:00 2.2 4 Noroeste 13 Noroeste 0 946.6 1.3 75
2019-11-16 01:00:00 2.7 5 Noroeste 12 Noroeste 0 946.3 1.1 73
2019-11-16 00:00:00 3.5 4 Noroeste 14 Norte 0 945.8 1.1 72
2019-11-15 23:00:00 3.8 3 Noroeste 13 Noroeste 0 945.3 0.5 71
2019-11-15 22:00:00 5.1 8 Noroeste 19 Noroeste 0 945.2 1 66
2019-11-15 21:00:00 5.2 4 Noroeste 18 Noroeste 0 944.7 0.9 65
2019-11-15 20:00:00 6.3 6 Noroeste 13 Noroeste 0 944.8 1.4 62
2019-11-15 19:00:00 7.6 5 Noroeste 17 Oeste 0 944.2 0.9 57
2019-11-15 18:00:00 8.7 10 Noroeste 21 Noroeste 0 943.8 0.5 52
2019-11-15 17:00:00 9.1 8 Noroeste 24 Noroeste 0 943.4 -0.2 55
2019-11-15 16:00:00 8.4 9 Noroeste 22 Noroeste 0 943.3 -0.9 57
2019-11-15 15:00:00 8.4 13 Noroeste 27 Oeste 0 943.3 -1.3 56
2019-11-15 14:00:00 8.1 15 Noroeste 25 Oeste 0 943.6 -1.2 59
2019-11-15 13:00:00 8 14 Noroeste 28 Noroeste 0 944.2 -0.6 56
2019-11-15 12:00:00 8.1 13 Noroeste 27 Oeste 0 944.6 0.4 61
2019-11-15 11:00:00 7 14 Noroeste 27 Noroeste 0 944.8 1 69
2019-11-15 10:00:00 5.1 10 Noroeste 26 Oeste 0 944.8 1.3 79
2019-11-15 09:00:00 3.8 13 Noroeste 26 Oeste 0 944.2 0.8 82
2019-11-15 08:00:00 3.6 13 Noroeste 30 Noroeste 0 943.8 0.6 83
2019-11-15 07:00:00 4.1 17 Noroeste 31 Noroeste 0 943.5 0 82
2019-11-15 06:00:00 3.8 12 Noroeste 29 Noroeste 0 943.4 -0.5 82
2019-11-15 05:00:00 4.1 14 Noroeste 27 Noroeste 0 943.2 -0.6 80
2019-11-15 04:00:00 4.4 12 Noroeste 31 Noroeste 0 943.5 -0.8 78
2019-11-15 03:00:00 4.6 8 Noroeste 33 Noroeste 0 943.9 -0.5 75
2019-11-15 02:00:00 5.4 15 Noroeste 34 Noroeste 0 943.8 -0.5 73
2019-11-15 01:00:00 5.9 12 Oeste 35 Oeste 0 944.3 -0.4 72
2019-11-15 00:00:00 6.8 19 Noroeste 44 Noroeste 0 944.4 -0.2 68